Time;durP1;ratioP1;P1;durP2;ratioP2;P2;SDS_P1;SDS_P2;PMS_P1;PMS_P2;Temp;Humidity;BMP_temperature;BMP_pressure;BME280_temperature;BME280_humidity;BME280_pressure;Samples;Min_cycle;Max_cycle;Signal;HPM_P1;HPM_P2
2021/07/02 00:01:57;;;;;;;32.43;27.90;;;;;;;18.74;79.12;100969.91;5038716;28;20247;-67
2021/07/02 00:04:22;;;;;;;32.43;27.17;;;;;;;18.58;79.66;100969.34;5037955;28;20284;-67
2021/07/02 00:06:47;;;;;;;32.67;27.70;;;;;;;18.28;80.64;100972.59;5039236;28;20197;-67
2021/07/02 00:09:13;;;;;;;33.10;27.67;;;;;;;18.75;78.90;100972.53;5037364;28;20505;-66
2021/07/02 00:11:38;;;;;;;32.33;27.77;;;;;;;18.83;78.56;100965.34;5037750;28;20476;-67
2021/07/02 00:14:04;;;;;;;33.50;27.70;;;;;;;18.59;79.34;100971.09;5037459;28;20649;-66
2021/07/02 00:16:30;;;;;;;33.00;28.27;;;;;;;18.42;79.58;100964.41;5037337;28;20614;-67
2021/07/02 00:18:56;;;;;;;35.97;29.20;;;;;;;18.75;78.53;100951.41;5040524;28;20194;-67
2021/07/02 00:21:21;;;;;;;37.27;25.67;;;;;;;18.68;78.08;100958.56;5045669;28;20844;-65
2021/07/02 00:23:46;;;;;;;38.63;30.57;;;;;;;18.64;78.39;100956.03;5057062;28;20222;-66
2021/07/02 00:26:12;;;;;;;36.03;28.50;;;;;;;18.75;77.79;100955.81;5057847;28;20173;-66
2021/07/02 00:28:37;;;;;;;30.70;26.13;;;;;;;18.82;77.57;100958.31;5053120;28;20439;-66
2021/07/02 00:31:03;;;;;;;38.20;28.40;;;;;;;18.63;78.07;100956.94;5057593;28;20296;-67
2021/07/02 00:33:28;;;;;;;30.33;25.20;;;;;;;18.20;79.42;100960.41;5060760;28;20166;-66
2021/07/02 00:35:54;;;;;;;33.63;29.97;;;;;;;18.60;77.91;100952.59;5047611;28;20194;-67
2021/07/02 00:38:19;;;;;;;28.93;25.83;;;;;;;18.48;78.38;100964.28;5042664;28;20189;-67
2021/07/02 00:40:44;;;;;;;31.20;25.50;;;;;;;18.57;77.74;100967.66;5041263;28;20253;-67
2021/07/02 00:43:10;;;;;;;36.00;27.77;;;;;;;18.35;78.78;100968.91;5053959;28;20182;-66
2021/07/02 00:45:35;;;;;;;31.93;27.03;;;;;;;18.52;78.26;100968.59;5060536;28;20239;-66
2021/07/02 00:48:01;;;;;;;33.27;26.73;;;;;;;18.58;77.62;100967.59;5058900;28;20223;-66
2021/07/02 00:50:26;;;;;;;31.77;27.80;;;;;;;18.73;77.51;100966.44;5042963;28;20182;-67
2021/07/02 00:52:52;;;;;;;33.10;25.80;;;;;;;18.64;77.62;100959.53;5040657;28;20466;-66
2021/07/02 00:55:17;;;;;;;29.60;24.93;;;;;;;18.56;77.71;100963.25;5040168;28;20225;-66
2021/07/02 00:57:45;;;;;;;29.63;24.70;;;;;;;18.68;77.53;100968.28;5040525;28;20432;-67
2021/07/02 01:00:11;;;;;;;31.60;24.43;;;;;;;18.65;77.01;100956.00;5053648;28;20188;-66
2021/07/02 01:02:36;;;;;;;27.67;22.53;;;;;;;18.41;77.93;100959.16;5061143;28;20822;-66
2021/07/02 01:05:02;;;;;;;30.00;23.50;;;;;;;18.51;77.09;100956.31;5060391;28;20451;-66
2021/07/02 01:07:28;;;;;;;33.23;22.73;;;;;;;18.55;76.78;100956.22;5060339;28;20166;-67
2021/07/02 01:09:53;;;;;;;27.03;22.70;;;;;;;18.71;76.75;100962.06;5047794;28;20467;-65
2021/07/02 01:12:19;;;;;;;29.87;26.37;;;;;;;18.74;75.92;100965.53;5039731;28;20258;-66
2021/07/02 01:14:44;;;;;;;31.17;23.80;;;;;;;18.44;76.87;100956.44;5057699;28;20178;-67
2021/07/02 01:17:10;;;;;;;25.37;20.23;;;;;;;18.64;76.43;100962.19;5060672;28;20196;-67
2021/07/02 01:19:36;;;;;;;27.30;20.70;;;;;;;18.75;75.63;100961.97;5052629;28;20228;-66
2021/07/02 01:22:01;;;;;;;26.03;21.93;;;;;;;18.49;76.18;100968.66;5022868;28;20762;-66
2021/07/02 01:24:27;;;;;;;25.63;19.30;;;;;;;18.04;77.97;100960.72;5040232;28;20615;-68
2021/07/02 01:26:52;;;;;;;29.77;21.40;;;;;;;18.33;77.14;100965.47;5042804;28;20563;-67
2021/07/02 01:29:19;;;;;;;23.93;20.10;;;;;;;18.18;77.68;100976.28;5041292;28;20222;-67
2021/07/02 01:31:44;;;;;;;21.40;18.03;;;;;;;18.47;76.06;100970.47;5040080;28;20217;-66
2021/07/02 01:34:09;;;;;;;24.13;20.60;;;;;;;18.39;76.43;100972.38;5039932;28;20656;-67
2021/07/02 01:36:35;;;;;;;24.37;18.27;;;;;;;18.15;76.76;100966.66;5040048;28;20186;-67
2021/07/02 01:39:00;;;;;;;21.40;17.50;;;;;;;18.01;77.42;100982.72;5041706;28;20539;-67
2021/07/02 01:41:26;;;;;;;20.20;18.00;;;;;;;17.85;78.20;100979.44;5039719;28;20217;-67
2021/07/02 01:43:51;;;;;;;24.60;20.40;;;;;;;17.98;77.53;100974.00;5058634;28;20200;-67
2021/07/02 01:46:16;;;;;;;22.30;19.13;;;;;;;17.64;78.48;100971.88;5059735;28;20219;-67
2021/07/02 01:48:42;;;;;;;21.30;18.60;;;;;;;17.67;78.37;100974.47;5058741;28;20189;-66
2021/07/02 01:51:08;;;;;;;27.30;21.20;;;;;;;17.83;77.80;100978.63;5041826;28;20571;-66
2021/07/02 01:53:33;;;;;;;24.73;19.90;;;;;;;17.75;77.82;100982.25;5039390;28;20425;-66
2021/07/02 01:55:58;;;;;;;25.70;19.60;;;;;;;17.93;76.77;100991.69;5038365;28;20186;-65
2021/07/02 01:58:23;;;;;;;23.80;17.00;;;;;;;17.58;77.31;100987.81;5039896;28;20174;-65
2021/07/02 02:00:49;;;;;;;21.47;18.33;;;;;;;17.46;78.04;100992.38;5041125;28;20196;-65
2021/07/02 02:03:15;;;;;;;22.30;17.37;;;;;;;17.57;77.25;100989.56;5059325;28;20266;-66
2021/07/02 02:05:40;;;;;;;20.47;17.13;;;;;;;17.44;77.55;100999.44;5059928;28;20223;-66
2021/07/02 02:08:06;;;;;;;19.87;17.70;;;;;;;17.34;78.04;100998.69;5058334;28;20435;-65
2021/07/02 02:10:31;;;;;;;24.37;17.30;;;;;;;17.37;77.56;100997.75;5039682;28;20186;-66
2021/07/02 02:12:56;;;;;;;24.00;17.60;;;;;;;17.43;76.92;100997.69;5059311;28;20170;-66
2021/07/02 02:15:21;;;;;;;24.83;17.60;;;;;;;17.38;77.09;100993.38;5059160;28;20209;-66
2021/07/02 02:17:47;;;;;;;21.43;19.07;;;;;;;17.45;76.77;101001.16;5058967;28;20235;-66
2021/07/02 02:20:13;;;;;;;23.03;18.50;;;;;;;17.34;77.19;101003.94;5040985;28;20189;-67
2021/07/02 02:22:39;;;;;;;26.27;18.47;;;;;;;17.03;78.46;100990.34;5038673;28;20217;-65
2021/07/02 02:25:05;;;;;;;28.00;19.67;;;;;;;17.03;78.63;100992.97;5039066;28;20951;-67
2021/07/02 02:27:31;;;;;;;24.50;19.97;;;;;;;17.29;77.83;100991.75;5039483;28;20166;-65
2021/07/02 02:29:56;;;;;;;25.43;19.83;;;;;;;17.06;79.70;100995.59;5039054;28;21588;-66
2021/07/02 02:32:22;;;;;;;20.60;18.40;;;;;;;17.17;79.13;100990.16;5040741;28;20878;-66
2021/07/02 02:34:47;;;;;;;23.87;21.23;;;;;;;16.86;80.10;100995.81;5039086;28;20185;-66
2021/07/02 02:37:12;;;;;;;24.77;20.60;;;;;;;17.09;79.61;100994.63;5039063;28;20218;-66
2021/07/02 02:39:38;;;;;;;23.87;21.23;;;;;;;17.39;78.61;100993.34;5038518;28;20198;-66
2021/07/02 02:42:04;;;;;;;24.97;20.80;;;;;;;17.12;79.45;100998.13;5042308;28;20173;-66
2021/07/02 02:44:29;;;;;;;28.20;21.87;;;;;;;16.83;80.46;101001.97;5046268;28;20744;-66
2021/07/02 02:46:55;;;;;;;27.67;23.23;;;;;;;17.11;79.75;101001.63;5039373;28;20194;-65
2021/07/02 02:49:23;;;;;;;27.90;24.87;;;;;;;17.12;79.41;101002.53;5039284;28;20261;-66
2021/07/02 02:51:49;;;;;;;28.40;22.67;;;;;;;16.96;79.79;101005.34;5038517;28;20205;-66
2021/07/02 02:54:15;;;;;;;29.53;23.73;;;;;;;17.13;79.49;101009.50;5039394;28;20441;-65
2021/07/02 02:59:24;;;;;;;30.53;23.93;;;;;;;16.90;80.33;101004.53;5058530;28;20268;-65
2021/07/02 03:01:49;;;;;;;31.30;23.90;;;;;;;16.87;80.47;101007.19;5058325;28;20495;-64
2021/07/02 03:04:14;;;;;;;35.50;23.57;;;;;;;17.20;79.10;101005.94;5058286;28;20521;-66
2021/07/02 03:06:40;;;;;;;28.03;21.73;;;;;;;16.92;79.87;101008.03;5057877;28;20560;-66
2021/07/02 03:09:05;;;;;;;27.90;22.03;;;;;;;16.79;80.11;101009.91;5058343;28;20181;-66
2021/07/02 03:11:30;;;;;;;29.97;23.93;;;;;;;16.82;79.78;101015.16;5049782;28;20579;-66
2021/07/02 03:13:56;;;;;;;29.00;23.20;;;;;;;16.90;79.63;101007.19;5040627;28;20192;-67
2021/07/02 03:16:21;;;;;;;26.90;22.63;;;;;;;16.94;79.71;101008.88;5041936;28;20197;-65
2021/07/02 03:18:46;;;;;;;28.37;23.00;;;;;;;16.93;80.01;101015.91;5046882;28;20192;-65
2021/07/02 03:21:12;;;;;;;31.50;23.77;;;;;;;17.10;78.74;101015.72;5057148;28;20173;-65
2021/07/02 03:23:37;;;;;;;24.47;20.23;;;;;;;16.88;79.67;101015.06;5040399;28;20257;-65
2021/07/02 03:26:02;;;;;;;26.47;21.10;;;;;;;17.03;79.02;101014.03;5037968;28;20170;-66
2021/07/02 03:28:28;;;;;;;24.47;20.90;;;;;;;17.16;78.58;101010.34;5038286;28;20179;-64
2021/07/02 03:30:53;;;;;;;23.00;20.20;;;;;;;17.13;77.52;101014.78;5037989;28;20205;-64
2021/07/02 03:33:18;;;;;;;27.27;22.20;;;;;;;16.83;79.57;101019.50;5037898;28;20170;-66
2021/07/02 03:35:44;;;;;;;35.83;22.30;;;;;;;17.06;78.73;101016.66;5043569;28;20193;-65
2021/07/02 03:38:09;;;;;;;29.40;21.23;;;;;;;16.94;79.09;101029.94;5037732;28;20185;-66
2021/07/02 03:40:34;;;;;;;24.03;19.07;;;;;;;16.97;78.68;101040.47;5037733;28;20324;-66
2021/07/02 03:42:59;;;;;;;22.77;20.40;;;;;;;17.16;78.23;101041.97;5042698;28;20486;-65
2021/07/02 03:45:25;;;;;;;23.57;20.70;;;;;;;17.04;78.41;101043.91;5040521;28;20204;-65
2021/07/02 03:47:50;;;;;;;30.03;21.73;;;;;;;16.73;79.63;101044.22;5057466;28;20170;-67
2021/07/02 03:50:15;;;;;;;23.80;20.60;;;;;;;16.75;79.73;101048.59;5056957;28;20177;-65
2021/07/02 03:52:41;;;;;;;30.03;25.10;;;;;;;16.95;79.13;101047.50;5057247;28;20258;-66
2021/07/02 03:55:07;;;;;;;27.13;22.93;;;;;;;17.21;77.91;101048.94;5044581;28;20547;-65
2021/07/02 03:57:32;;;;;;;29.83;21.73;;;;;;;17.31;77.32;101053.22;5039480;28;20251;-64
2021/07/02 03:59:58;;;;;;;30.77;22.63;;;;;;;17.38;76.73;101056.63;5036879;28;20178;-66
2021/07/02 04:02:23;;;;;;;51.47;39.60;;;;;;;17.47;77.14;101054.75;5037989;28;20255;-66
2021/07/02 04:04:48;;;;;;;29.40;22.50;;;;;;;17.54;76.73;101052.88;5039483;28;20178;-66
2021/07/02 04:07:14;;;;;;;26.43;21.77;;;;;;;17.32;77.43;101045.28;5043179;28;20228;-64
2021/07/02 04:09:39;;;;;;;28.37;21.57;;;;;;;17.61;76.81;101053.66;5059086;28;20185;-64
2021/07/02 04:12:06;;;;;;;24.30;21.10;;;;;;;17.80;76.08;101055.13;5061502;28;20570;-64
2021/07/02 04:14:31;;;;;;;24.40;21.03;;;;;;;17.77;75.96;101055.19;5058310;28;20216;-64
2021/07/02 04:16:56;;;;;;;23.37;20.93;;;;;;;17.56;76.78;101060.78;5057230;28;20834;-64
2021/07/02 04:19:22;;;;;;;23.53;20.37;;;;;;;17.82;75.85;101063.91;5041728;28;20182;-64
2021/07/02 04:21:48;;;;;;;24.47;18.47;;;;;;;17.40;77.39;101063.63;5041063;28;20431;-65
2021/07/02 04:24:14;;;;;;;24.90;18.10;;;;;;;17.49;76.92;101065.25;5042257;28;20240;-66
2021/07/02 04:26:39;;;;;;;23.90;18.70;;;;;;;17.59;75.94;101066.00;5041399;28;20180;-67
2021/07/02 04:29:04;;;;;;;26.93;18.43;;;;;;;17.75;75.03;101072.81;5042790;28;20202;-67
2021/07/02 04:31:30;;;;;;;23.60;17.20;;;;;;;17.45;75.75;101064.41;5049965;28;20267;-66
2021/07/02 04:33:55;;;;;;;18.80;16.80;;;;;;;17.56;75.49;101066.91;5056818;28;20228;-67
2021/07/02 04:36:21;;;;;;;19.73;16.70;;;;;;;17.87;74.22;101066.44;5040706;28;20511;-67
2021/07/02 04:38:46;;;;;;;24.57;16.27;;;;;;;17.71;74.29;101064.94;5042510;28;20182;-66
2021/07/02 04:41:11;;;;;;;18.80;16.87;;;;;;;18.03;73.39;101067.13;5043286;28;20182;-65
2021/07/02 04:43:37;;;;;;;22.20;16.50;;;;;;;18.15;72.55;101061.63;5040564;28;20205;-65
2021/07/02 04:46:02;;;;;;;20.10;16.50;;;;;;;19.08;69.09;101059.97;5042041;28;20556;-66
2021/07/02 04:48:28;;;;;;;17.03;15.23;;;;;;;21.02;62.11;101062.31;5044138;28;20174;-65
2021/07/02 04:50:53;;;;;;;15.80;14.20;;;;;;;22.05;59.03;101054.75;5040270;28;20250;-64
2021/07/02 04:53:20;;;;;;;14.37;12.97;;;;;;;22.07;58.47;101057.38;5039867;28;20197;-66
2021/07/02 04:55:45;;;;;;;13.00;11.67;;;;;;;21.23;60.12;101064.38;5042154;28;20197;-65
2021/07/02 04:58:11;;;;;;;14.93;13.33;;;;;;;21.07;60.01;101054.25;5044113;28;20500;-65
2021/07/02 05:00:37;;;;;;;17.10;11.30;;;;;;;22.34;56.61;101063.56;5040246;28;20240;-65
2021/07/02 05:03:03;;;;;;;13.97;12.40;;;;;;;22.85;54.92;101054.69;5040002;28;20253;-66
2021/07/02 05:05:28;;;;;;;12.87;11.47;;;;;;;22.54;55.07;101061.09;5041601;28;20448;-65
2021/07/02 05:07:54;;;;;;;12.73;11.43;;;;;;;22.69;54.93;101059.69;5043431;28;20198;-65
2021/07/02 05:10:19;;;;;;;12.33;11.10;;;;;;;22.97;54.43;101063.13;5050996;28;20253;-66
2021/07/02 05:12:44;;;;;;;12.03;10.93;;;;;;;22.67;55.49;101066.81;5039903;28;20218;-66
2021/07/02 05:15:10;;;;;;;13.07;11.50;;;;;;;22.92;54.73;101073.03;5040246;28;20186;-66
2021/07/02 05:17:36;;;;;;;12.83;11.50;;;;;;;22.73;54.82;101073.69;5040153;28;20182;-66
2021/07/02 05:20:02;;;;;;;13.20;11.83;;;;;;;23.12;54.43;101073.16;5039009;28;20182;-65
2021/07/02 05:22:29;;;;;;;13.10;11.63;;;;;;;21.13;59.62;101071.75;5039627;28;20439;-67
2021/07/02 05:24:54;;;;;;;11.20;10.20;;;;;;;20.80;60.33;101082.41;5039968;28;20457;-66
2021/07/02 05:27:19;;;;;;;14.97;11.43;;;;;;;20.96;60.25;101086.34;5041382;28;20455;-66
2021/07/02 05:29:45;;;;;;;14.60;11.63;;;;;;;20.84;61.59;101089.34;5041697;28;20198;-65
2021/07/02 05:32:10;;;;;;;12.83;11.57;;;;;;;20.97;61.11;101087.22;5040197;28;20256;-66
2021/07/02 05:34:36;;;;;;;15.07;12.93;;;;;;;21.38;59.69;101085.16;5039360;28;20242;-66
2021/07/02 05:37:02;;;;;;;16.73;15.00;;;;;;;20.13;64.37;101097.31;5039641;28;20256;-67
2021/07/02 05:39:27;;;;;;;18.37;16.37;;;;;;;19.70;65.67;101090.38;5043159;28;20208;-66
2021/07/02 05:41:52;;;;;;;19.17;17.17;;;;;;;19.13;68.05;101100.38;5045875;28;20552;-67
2021/07/02 05:44:18;;;;;;;20.67;15.57;;;;;;;19.28;67.59;101099.19;5040171;28;20236;-65
2021/07/02 05:46:44;;;;;;;18.60;16.17;;;;;;;19.28;67.31;101095.66;5040964;28;20182;-65
2021/07/02 05:49:09;;;;;;;17.13;15.43;;;;;;;19.69;66.96;101099.19;5076522;28;20832;-65
2021/07/02 05:51:35;;;;;;;17.67;15.80;;;;;;;19.69;66.23;101104.50;5079670;28;20200;-65
2021/07/02 05:54:00;;;;;;;19.03;16.53;;;;;;;19.36;67.83;101106.94;5079205;28;20201;-65
2021/07/02 05:56:28;;;;;;;18.33;16.40;;;;;;;19.70;66.84;101103.59;5078975;28;20557;-65
2021/07/02 05:58:58;;;;;;;22.20;16.07;;;;;;;21.06;61.93;101094.91;5067316;28;20462;-65
2021/07/02 06:01:24;;;;;;;14.60;13.10;;;;;;;20.80;61.77;101091.19;5063630;28;20431;-66
2021/07/02 06:03:50;;;;;;;15.53;13.17;;;;;;;22.37;56.95;101090.88;5078842;28;20447;-65
2021/07/02 06:06:15;;;;;;;13.70;12.30;;;;;;;22.16;57.33;101096.88;5079423;28;20431;-68
2021/07/02 06:08:41;;;;;;;16.20;12.77;;;;;;;22.16;56.58;101089.81;5079123;28;20177;-67
2021/07/02 06:11:06;;;;;;;14.77;12.90;;;;;;;20.81;59.99;101094.72;5070968;28;20472;-68
2021/07/02 06:13:32;;;;;;;15.57;13.97;;;;;;;21.76;58.16;101091.09;5069333;28;20188;-67
2021/07/02 06:15:57;;;;;;;14.00;12.60;;;;;;;20.83;60.51;101099.06;5065988;28;20176;-67
2021/07/02 06:18:22;;;;;;;14.57;12.83;;;;;;;20.29;62.75;101096.94;5039342;28;20201;-67
2021/07/02 06:20:52;;;;;;;14.40;13.00;;;;;;;19.76;64.80;101103.44;5049317;28;20204;-68
2021/07/02 06:23:21;;;;;;;15.43;13.87;;;;;;;20.59;62.43;101095.25;5039432;28;20434;-66
2021/07/02 06:25:47;;;;;;;17.00;14.10;;;;;;;20.18;63.69;101099.84;5051556;28;20507;-65
2021/07/02 06:28:13;;;;;;;17.30;14.30;;;;;;;20.15;64.69;101103.44;5055489;28;20522;-65
2021/07/02 06:30:40;;;;;;;17.27;13.70;;;;;;;19.86;65.63;101104.13;5065447;28;20734;-65
2021/07/02 06:33:05;;;;;;;25.33;14.90;;;;;;;19.77;65.47;101106.94;5039504;28;20444;-65
2021/07/02 06:35:31;;;;;;;15.40;13.63;;;;;;;20.35;63.83;101104.75;5041148;28;20908;-66
2021/07/02 06:37:57;;;;;;;17.60;14.37;;;;;;;20.56;62.65;101098.00;5038221;28;20429;-67
2021/07/02 06:40:22;;;;;;;15.63;12.80;;;;;;;20.06;64.81;101111.59;5040354;28;20197;-65
2021/07/02 06:42:48;;;;;;;16.63;13.43;;;;;;;19.61;65.74;101106.44;5078205;28;20169;-65
2021/07/02 06:45:14;;;;;;;15.57;13.23;;;;;;;20.24;64.47;101101.47;5078042;28;20226;-66
2021/07/02 06:47:52;;;;;;;17.03;14.80;;;;;;;19.71;65.50;101112.38;5043114;28;20189;-65
2021/07/02 06:50:17;;;;;;;15.97;13.83;;;;;;;19.50;65.91;101111.97;5038048;28;20527;-65
2021/07/02 06:52:43;;;;;;;18.10;15.77;;;;;;;19.28;66.86;101117.72;5037792;28;20476;-66
2021/07/02 06:55:09;;;;;;;19.93;15.90;;;;;;;19.23;67.40;101118.69;5049719;28;20192;-66
2021/07/02 06:57:34;;;;;;;19.90;15.37;;;;;;;19.65;66.43;101116.91;5055508;28;20198;-66
2021/07/02 07:00:02;;;;;;;19.10;15.33;;;;;;;19.58;66.57;101110.03;5048627;28;20185;-66
2021/07/02 07:02:28;;;;;;;15.40;13.80;;;;;;;19.62;66.80;101113.44;5045579;28;20185;-66
2021/07/02 07:04:53;;;;;;;17.17;14.13;;;;;;;19.67;67.37;101104.53;5045378;28;20542;-66
2021/07/02 07:07:19;;;;;;;15.70;13.70;;;;;;;19.64;66.05;101109.00;5057696;28;20170;-65
2021/07/02 07:09:44;;;;;;;16.83;14.93;;;;;;;20.04;65.21;101110.78;5045464;28;20186;-66
2021/07/02 07:12:09;;;;;;;15.40;13.90;;;;;;;21.08;61.25;101103.69;5044706;28;20522;-66
2021/07/02 07:14:34;;;;;;;16.23;13.83;;;;;;;23.71;53.17;101097.56;5037755;28;20261;-66
2021/07/02 07:17:01;;;;;;;15.53;11.40;;;;;;;24.55;49.51;101098.53;5038175;28;20171;-66
2021/07/02 07:19:28;;;;;;;13.50;12.30;;;;;;;24.64;48.85;101093.78;5037906;28;20186;-67
2021/07/02 07:21:54;;;;;;;13.07;11.77;;;;;;;22.32;54.92;101097.25;5037054;28;21213;-67
2021/07/02 07:24:19;;;;;;;15.20;11.10;;;;;;;21.98;56.75;101103.69;5037729;28;20464;-67
2021/07/02 07:26:44;;;;;;;13.50;12.10;;;;;;;21.49;58.48;101106.91;5038040;28;20548;-66
2021/07/02 07:29:10;;;;;;;14.60;12.60;;;;;;;21.16;59.58;101108.75;5057606;28;20185;-67
2021/07/02 07:31:35;;;;;;;16.57;12.20;;;;;;;21.23;60.01;101104.16;5045866;28;20288;-67
2021/07/02 07:34:01;;;;;;;13.73;12.30;;;;;;;22.94;55.25;101095.13;5077266;28;20169;-66
2021/07/02 07:36:28;;;;;;;11.93;10.73;;;;;;;24.04;51.64;101092.72;5055171;28;20460;-67
2021/07/02 07:38:54;;;;;;;12.40;11.20;;;;;;;23.21;53.88;101112.75;5044064;28;20431;-67
2021/07/02 07:41:20;;;;;;;15.07;13.67;;;;;;;24.32;52.15;101096.88;5047705;28;20439;-67
2021/07/02 07:43:46;;;;;;;15.10;13.60;;;;;;;23.96;52.64;101099.25;5049988;28;20173;-66
2021/07/02 07:46:11;;;;;;;14.03;12.67;;;;;;;23.17;53.94;101102.28;5057351;28;20431;-67
2021/07/02 07:48:36;;;;;;;15.00;13.50;;;;;;;23.11;54.65;101102.47;5039226;28;20184;-67
2021/07/02 07:51:30;;;;;;;14.60;13.20;;;;;;;23.35;54.45;101100.72;5039710;28;20652;-66
2021/07/02 07:53:55;;;;;;;14.00;12.60;;;;;;;26.47;46.43;101094.13;5057088;28;20177;-67
2021/07/02 07:56:21;;;;;;;13.93;12.53;;;;;;;24.43;51.05;101092.91;5045252;28;20421;-67
2021/07/02 07:58:46;;;;;;;15.20;13.20;;;;;;;23.75;53.87;101095.66;5037078;28;20193;-68
2021/07/02 08:01:11;;;;;;;13.40;12.23;;;;;;;22.82;54.80;101102.63;5037409;28;20417;-65
2021/07/02 08:03:37;;;;;;;15.30;13.70;;;;;;;21.92;58.45;101109.16;5037579;28;20189;-66
2021/07/02 08:06:02;;;;;;;14.93;13.43;;;;;;;22.34;57.64;101111.38;5041152;28;20602;-66
2021/07/02 08:08:27;;;;;;;14.33;13.03;;;;;;;23.46;54.43;101111.84;5057120;28;20166;-65
2021/07/02 08:10:53;;;;;;;14.97;13.20;;;;;;;23.66;53.88;101105.72;5056498;28;20243;-66
2021/07/02 08:13:18;;;;;;;15.27;12.20;;;;;;;25.52;48.89;101103.19;5052464;28;20256;-66
2021/07/02 08:15:44;;;;;;;13.57;12.27;;;;;;;23.98;51.10;101100.94;5057354;28;20185;-66
2021/07/02 08:18:09;;;;;;;12.73;11.53;;;;;;;25.66;47.74;101106.03;5057317;28;20417;-66
2021/07/02 08:20:35;;;;;;;11.93;10.93;;;;;;;26.32;44.96;101104.63;5054415;28;20256;-66
2021/07/02 08:23:00;;;;;;;11.23;10.23;;;;;;;26.08;45.34;101111.22;5036483;28;20162;-65
2021/07/02 08:25:25;;;;;;;11.33;10.00;;;;;;;26.03;45.40;101106.09;5038318;28;20261;-66
2021/07/02 08:30:35;;;;;;;11.63;10.53;;;;;;;27.39;41.99;101107.97;5036639;28;20269;-65
2021/07/02 08:33:00;;;;;;;11.20;10.20;;;;;;;26.64;43.21;101110.16;5062223;28;20466;-65
2021/07/02 08:35:25;;;;;;;11.33;10.33;;;;;;;26.09;43.71;101108.47;5075113;28;20187;-65
2021/07/02 08:37:52;;;;;;;10.77;9.87;;;;;;;26.18;43.68;101109.81;5054023;28;20189;-65
2021/07/02 08:40:19;;;;;;;11.67;10.57;;;;;;;23.90;49.06;101119.03;5053754;28;20205;-65
2021/07/02 08:42:45;;;;;;;12.13;10.83;;;;;;;24.59;48.53;101115.28;5056291;28;20444;-65
2021/07/02 08:45:10;;;;;;;10.90;9.90;;;;;;;26.72;44.10;101105.28;5056819;28;20797;-65
2021/07/02 08:47:36;;;;;;;11.47;10.37;;;;;;;28.35;39.54;101101.69;5044516;28;20260;-64
2021/07/02 08:50:02;;;;;;;13.40;11.03;;;;;;;28.16;39.05;101109.94;5036367;28;20283;-65
2021/07/02 08:52:28;;;;;;;12.17;11.17;;;;;;;26.93;42.94;101114.91;5041754;28;20603;-65
2021/07/02 08:54:53;;;;;;;12.60;11.47;;;;;;;27.71;41.97;101118.69;5053083;28;20493;-65
2021/07/02 08:57:18;;;;;;;13.33;12.10;;;;;;;28.43;40.54;101115.50;5040382;28;20190;-65
2021/07/02 08:59:43;;;;;;;11.63;10.60;;;;;;;28.01;41.56;101120.59;5043762;28;20499;-65
2021/07/02 09:02:26;;;;;;;17.60;13.60;;;;;;;26.62;44.28;101132.56;5050785;28;20196;-67
2021/07/02 09:04:51;;;;;;;14.80;12.53;;;;;;;26.43;45.33;101122.81;5060177;28;20193;-66
2021/07/02 09:07:19;;;;;;;13.90;12.50;;;;;;;26.78;43.76;101127.28;5058879;28;20419;-66
2021/07/02 09:09:51;;;;;;;13.63;12.37;;;;;;;27.57;42.35;101132.00;5058018;28;20268;-66
2021/07/02 09:12:21;;;;;;;15.13;12.10;;;;;;;27.80;41.25;101119.97;5058837;28;20471;-65
2021/07/02 09:15:01;;;;;;;12.47;11.30;;;;;;;28.44;40.29;101125.25;5047791;28;20506;-66
2021/07/02 09:17:27;;;;;;;12.97;11.67;;;;;;;28.70;40.22;101115.66;5040084;28;20733;-65
2021/07/02 09:20:13;;;;;;;11.83;10.77;;;;;;;28.74;38.54;101119.03;5039715;28;20425;-65
2021/07/02 09:22:41;;;;;;;12.10;10.83;;;;;;;28.90;38.31;101121.63;5039961;28;20197;-65
2021/07/02 09:25:11;;;;;;;10.60;9.70;;;;;;;29.00;36.48;101124.63;5047900;28;20472;-65
2021/07/02 09:27:38;;;;;;;11.17;10.07;;;;;;;28.44;38.33;101127.91;5045766;28;20471;-66
2021/07/02 09:30:12;;;;;;;12.20;11.10;;;;;;;29.61;36.28;101117.19;5055779;28;20452;-66
2021/07/02 09:32:40;;;;;;;11.07;9.97;;;;;;;29.07;37.67;101115.22;5058873;28;20458;-67
2021/07/02 09:35:05;;;;;;;10.40;9.53;;;;;;;29.34;37.80;101119.84;5076889;28;20490;-65
2021/07/02 09:37:47;;;;;;;11.27;10.27;;;;;;;29.36;37.63;101125.97;5059346;28;20507;-64
2021/07/02 09:40:22;;;;;;;12.10;11.00;;;;;;;27.01;42.14;101136.81;5051603;28;20174;-66
2021/07/02 09:42:58;;;;;;;11.77;10.67;;;;;;;27.68;41.44;101137.59;5046006;28;20475;-66
2021/07/02 09:45:23;;;;;;;11.10;10.10;;;;;;;28.39;38.96;101135.41;5059721;28;20720;-66
2021/07/02 09:47:49;;;;;;;12.37;11.07;;;;;;;28.52;38.27;101138.19;5055410;28;20451;-65
2021/07/02 09:50:27;;;;;;;13.20;11.90;;;;;;;29.45;37.57;101129.91;5059402;28;20231;-66
2021/07/02 09:52:54;;;;;;;11.43;10.43;;;;;;;28.71;38.00;101132.63;5059217;28;20310;-65
2021/07/02 09:55:22;;;;;;;12.67;10.23;;;;;;;29.13;36.12;101128.25;5059288;28;20423;-65
2021/07/02 09:57:48;;;;;;;11.00;9.70;;;;;;;28.87;36.23;101130.72;5038763;28;20893;-67
2021/07/02 10:00:15;;;;;;;11.67;10.67;;;;;;;28.90;36.85;101130.56;5055327;28;20531;-67
2021/07/02 10:03:02;;;;;;;12.80;11.60;;;;;;;28.97;38.10;101140.88;5059053;28;20170;-67
2021/07/02 10:05:28;;;;;;;11.93;10.83;;;;;;;29.23;36.98;101132.09;5059142;28;20483;-66
2021/07/02 10:08:02;;;;;;;11.53;10.53;;;;;;;29.33;37.82;101139.59;5059090;28;20503;-66
2021/07/02 10:10:28;;;;;;;11.63;10.43;;;;;;;28.64;39.18;101136.63;5042561;28;20452;-66
2021/07/02 10:12:56;;;;;;;14.90;11.50;;;;;;;28.37;39.16;101148.91;5038942;28;20740;-66
2021/07/02 10:15:21;;;;;;;13.70;10.37;;;;;;;26.97;42.00;101153.97;5039404;28;20471;-65
2021/07/02 10:17:47;;;;;;;10.60;9.70;;;;;;;27.54;40.35;101158.94;5052020;28;20448;-65
2021/07/02 10:20:14;;;;;;;10.13;9.13;;;;;;;27.85;39.15;101152.72;5039490;28;20200;-66
2021/07/02 10:22:40;;;;;;;9.40;8.50;;;;;;;27.83;38.09;101154.66;5039217;28;20162;-66
2021/07/02 10:25:06;;;;;;;8.67;7.97;;;;;;;27.98;37.79;101149.34;5038802;28;20464;-65
2021/07/02 10:27:33;;;;;;;8.47;7.77;;;;;;;28.60;36.90;101146.66;5038531;28;20425;-66
2021/07/02 10:29:59;;;;;;;8.50;7.40;;;;;;;28.29;36.80;101156.50;5039843;28;20186;-65
2021/07/02 10:32:24;;;;;;;9.13;8.17;;;;;;;29.16;36.92;101154.91;5046703;28;20476;-65
2021/07/02 10:34:50;;;;;;;8.90;8.20;;;;;;;28.15;38.12;101151.09;5047383;28;20861;-65
2021/07/02 10:37:15;;;;;;;8.57;7.87;;;;;;;27.89;38.97;101159.66;5038982;28;20193;-66
2021/07/02 10:39:45;;;;;;;9.87;9.07;;;;;;;28.42;37.81;101159.34;5039870;28;20213;-66
2021/07/02 10:42:15;;;;;;;8.27;7.57;;;;;;;28.73;37.00;101154.88;5038371;28;20194;-66
2021/07/02 10:44:52;;;;;;;8.60;7.90;;;;;;;27.75;39.36;101156.88;5050183;28;20463;-67
2021/07/02 10:47:17;;;;;;;9.53;8.83;;;;;;;27.71;38.99;101158.00;5048877;28;20424;-66
2021/07/02 10:49:43;;;;;;;9.70;8.90;;;;;;;27.28;40.59;101147.81;5038481;28;20817;-67
2021/07/02 10:52:25;;;;;;;9.90;7.90;;;;;;;28.31;38.27;101145.72;5038302;28;20240;-66
2021/07/02 10:54:51;;;;;;;9.43;8.63;;;;;;;29.69;35.12;101148.94;5038232;28;20189;-66
2021/07/02 10:57:19;;;;;;;9.07;8.23;;;;;;;28.29;37.34;101152.97;5038034;28;20474;-65
2021/07/02 10:59:51;;;;;;;9.97;8.57;;;;;;;28.62;37.68;101158.16;5050649;28;20452;-66
2021/07/02 11:02:21;;;;;;;9.00;8.10;;;;;;;28.45;36.74;101150.25;5048857;28;20537;-66
2021/07/02 11:04:48;;;;;;;8.27;7.57;;;;;;;28.45;37.08;101148.44;5045171;28;20468;-66
2021/07/02 11:07:20;;;;;;;9.17;8.10;;;;;;;28.29;36.07;101147.63;5056721;28;20408;-65
2021/07/02 11:09:51;;;;;;;8.83;8.13;;;;;;;28.57;38.06;101144.16;5044038;28;20437;-65
2021/07/02 11:12:21;;;;;;;9.93;9.03;;;;;;;28.33;37.74;101151.84;5037898;28;20853;-65
2021/07/02 11:17:34;;;;;;;11.07;9.07;;;;;;;26.56;40.68;101142.63;5037902;28;20468;-65